createdAt,value
2022-09-25T00:00:59.540Z,13.30
2022-09-25T00:03:25.050Z,13.20
2022-09-25T00:05:49.923Z,13.20
2022-09-25T00:08:14.724Z,13.20
2022-09-25T00:10:42.944Z,13.20
2022-09-25T00:13:07.875Z,13.20
2022-09-25T00:15:31.439Z,13.20
2022-09-25T00:17:54.979Z,13.20
2022-09-25T00:20:20.719Z,13.20
2022-09-25T00:22:44.514Z,13.20
2022-09-25T00:25:09.100Z,13.20
2022-09-25T00:27:32.946Z,13.20
2022-09-25T00:29:59.736Z,13.20
2022-09-25T00:32:23.274Z,13.10
2022-09-25T00:34:47.091Z,13.10
2022-09-25T00:37:10.635Z,13.10
2022-09-25T00:39:35.335Z,13.20
2022-09-25T00:41:58.974Z,13.10
2022-09-25T00:44:58.079Z,13.10
2022-09-25T00:47:27.731Z,13.10
2022-09-25T00:49:52.374Z,13.10
2022-09-25T00:52:16.492Z,13.10
2022-09-25T00:54:45.252Z,13.10
2022-09-25T00:57:14.962Z,13.10
2022-09-25T00:59:41.723Z,13.10
2022-09-25T01:02:08.980Z,13.10
2022-09-25T01:04:38.132Z,13.00
2022-09-25T01:07:01.858Z,13.00
2022-09-25T01:09:25.995Z,13.00
2022-09-25T01:11:49.521Z,13.00
2022-09-25T01:14:16.980Z,13.00
2022-09-25T01:16:49.836Z,13.00
2022-09-25T01:19:35.567Z,13.00
2022-09-25T01:22:07.367Z,13.00
2022-09-25T01:24:46.174Z,12.90
2022-09-25T01:27:43.491Z,12.90
2022-09-25T01:30:13.495Z,12.90
2022-09-25T01:32:49.588Z,12.90
2022-09-25T01:35:20.843Z,12.90
2022-09-25T01:37:49.382Z,12.90
2022-09-25T01:40:21.080Z,12.90
2022-09-25T01:42:52.808Z,12.90
2022-09-25T01:45:24.025Z,12.90
2022-09-25T01:47:50.234Z,12.90
2022-09-25T01:50:19.681Z,12.80
2022-09-25T01:52:49.406Z,12.80
2022-09-25T01:55:18.228Z,12.80
2022-09-25T01:57:49.277Z,12.80
2022-09-25T02:00:19.758Z,12.80
2022-09-25T02:02:48.387Z,12.80
2022-09-25T02:05:16.203Z,12.80
2022-09-25T02:07:46.147Z,12.80
2022-09-25T02:10:15.030Z,12.70
2022-09-25T02:12:43.442Z,12.80
2022-09-25T02:15:13.451Z,12.70
2022-09-25T02:18:04.367Z,12.80
2022-09-25T02:20:34.700Z,12.70
2022-09-25T02:23:03.156Z,12.70
2022-09-25T02:25:37.863Z,12.70
2022-09-25T02:28:01.459Z,12.70
2022-09-25T02:30:25.080Z,12.70
2022-09-25T02:32:50.098Z,12.70
2022-09-25T02:35:13.599Z,12.70
2022-09-25T02:37:37.192Z,12.70
2022-09-25T02:40:04.182Z,12.60
2022-09-25T02:42:40.689Z,12.60
2022-09-25T02:45:13.902Z,12.70
2022-09-25T02:47:48.655Z,12.60
2022-09-25T02:50:22.856Z,12.60
2022-09-25T02:52:54.643Z,12.60
2022-09-25T02:55:28.721Z,12.60
2022-09-25T02:57:57.790Z,12.60
2022-09-25T03:00:22.878Z,12.60
2022-09-25T03:02:52.335Z,12.60
2022-09-25T03:05:18.303Z,12.60
2022-09-25T03:08:00.472Z,12.60
2022-09-25T03:10:24.886Z,12.60
2022-09-25T03:12:48.418Z,12.60
2022-09-25T03:15:13.632Z,12.60
2022-09-25T03:17:37.502Z,12.60
2022-09-25T03:20:01.142Z,12.60
2022-09-25T03:22:26.028Z,12.60
2022-09-25T03:24:50.759Z,12.60
2022-09-25T03:27:14.279Z,12.60
2022-09-25T03:29:37.861Z,12.60
2022-09-25T03:32:01.491Z,12.60
2022-09-25T03:34:25.097Z,12.50
2022-09-25T03:36:48.752Z,12.50
2022-09-25T03:39:15.134Z,12.50
2022-09-25T03:41:38.970Z,12.50
2022-09-25T03:44:03.328Z,12.50
2022-09-25T03:46:29.862Z,12.50
2022-09-25T03:48:53.759Z,12.50
2022-09-25T03:51:17.348Z,12.50
2022-09-25T03:53:41.204Z,12.50
2022-09-25T03:56:09.230Z,12.50
2022-09-25T03:58:33.051Z,12.50
2022-09-25T04:00:57.727Z,12.50
2022-09-25T04:03:22.568Z,12.40
2022-09-25T04:05:46.409Z,12.40
2022-09-25T04:08:10.116Z,12.40
2022-09-25T04:10:34.350Z,12.40
2022-09-25T04:12:59.327Z,12.40
2022-09-25T04:15:24.107Z,12.40
2022-09-25T04:17:47.736Z,12.40
2022-09-25T04:20:11.607Z,12.40
2022-09-25T04:22:35.190Z,12.40
2022-09-25T04:24:58.707Z,12.40
2022-09-25T04:27:24.325Z,12.40
2022-09-25T04:29:50.291Z,12.40
2022-09-25T04:32:42.799Z,12.40
2022-09-25T04:35:07.199Z,12.40
2022-09-25T04:37:30.719Z,12.40
2022-09-25T04:39:54.927Z,12.40
2022-09-25T04:42:18.510Z,12.40
2022-09-25T04:44:42.069Z,12.40
2022-09-25T04:47:07.018Z,12.30
2022-09-25T04:49:30.584Z,12.30
2022-09-25T04:51:54.123Z,12.30
2022-09-25T04:54:17.931Z,12.30
2022-09-25T04:56:41.448Z,12.30
2022-09-25T04:59:05.042Z,12.30
2022-09-25T05:01:28.619Z,12.30
2022-09-25T05:03:54.509Z,12.30
2022-09-25T05:06:18.354Z,12.20
2022-09-25T05:08:41.923Z,12.20
2022-09-25T05:11:05.457Z,12.20
2022-09-25T05:13:29.239Z,12.20
2022-09-25T05:15:52.963Z,12.20
2022-09-25T05:18:20.756Z,12.20
2022-09-25T05:20:46.421Z,12.10
2022-09-25T05:23:10.396Z,12.10
2022-09-25T05:25:34.295Z,12.10
2022-09-25T05:28:00.568Z,12.10
2022-09-25T05:30:24.237Z,12.10
2022-09-25T05:32:50.618Z,12.10
2022-09-25T05:35:14.276Z,12.00
2022-09-25T05:37:39.264Z,12.00
2022-09-25T05:40:03.675Z,12.00
2022-09-25T05:42:29.037Z,11.90
2022-09-25T05:44:52.536Z,11.90
2022-09-25T05:47:16.099Z,11.90
2022-09-25T05:49:39.599Z,11.90
2022-09-25T05:52:03.835Z,11.90
2022-09-25T05:54:28.754Z,11.90
2022-09-25T05:56:52.299Z,11.90
2022-09-25T05:59:15.787Z,11.90
2022-09-25T06:01:39.479Z,11.90
2022-09-25T06:04:04.539Z,11.90
2022-09-25T06:06:28.072Z,11.90
2022-09-25T06:08:51.565Z,12.00
2022-09-25T06:11:16.525Z,12.00
2022-09-25T06:13:41.012Z,12.10
2022-09-25T06:16:06.047Z,12.10
2022-09-25T06:18:29.576Z,12.10
2022-09-25T06:20:59.490Z,12.10
2022-09-25T06:23:23.001Z,12.30
2022-09-25T06:25:46.840Z,12.40
2022-09-25T06:28:13.150Z,12.40
2022-09-25T06:30:38.583Z,12.50
2022-09-25T06:33:03.484Z,12.60
2022-09-25T06:35:27.232Z,12.70
2022-09-25T06:37:50.772Z,12.80
2022-09-25T06:40:14.342Z,12.90
2022-09-25T06:42:39.050Z,12.90
2022-09-25T06:45:04.099Z,13.00
2022-09-25T06:47:27.648Z,13.00
2022-09-25T06:49:51.234Z,13.10
2022-09-25T06:52:14.854Z,13.20
2022-09-25T06:54:41.845Z,13.20
2022-09-25T06:57:09.296Z,13.30
2022-09-25T06:59:32.831Z,13.40
2022-09-25T07:02:18.381Z,13.40
2022-09-25T07:04:41.126Z,13.50
2022-09-25T07:07:04.735Z,13.60
2022-09-25T07:09:28.410Z,13.70
2022-09-25T07:11:53.271Z,13.90
2022-09-25T07:14:16.839Z,13.90
2022-09-25T07:16:40.470Z,14.00
2022-09-25T07:19:05.662Z,14.10
2022-09-25T07:21:32.264Z,14.20
2022-09-25T07:23:57.110Z,14.10
2022-09-25T07:26:23.142Z,14.30
2022-09-25T07:28:46.688Z,14.40
2022-09-25T07:31:16.318Z,14.50
2022-09-25T07:33:40.027Z,14.50
2022-09-25T07:36:05.422Z,14.60
2022-09-25T07:38:29.043Z,14.60
2022-09-25T07:40:55.036Z,14.60
2022-09-25T07:43:18.628Z,14.60
2022-09-25T07:45:44.104Z,14.70
2022-09-25T07:48:07.755Z,14.80
2022-09-25T07:50:32.963Z,14.90
2022-09-25T07:52:57.943Z,14.90
2022-09-25T07:55:21.819Z,14.90
2022-09-25T07:57:45.361Z,15.00
2022-09-25T08:00:10.624Z,15.00
2022-09-25T08:02:36.015Z,15.10
2022-09-25T08:04:59.555Z,15.00
2022-09-25T08:07:23.128Z,15.20
2022-09-25T08:09:48.063Z,15.20
2022-09-25T08:12:14.052Z,15.30
2022-09-25T08:14:37.568Z,15.40
2022-09-25T08:17:01.167Z,15.40
2022-09-25T08:19:24.688Z,15.50
2022-09-25T08:21:48.396Z,15.60
2022-09-25T08:24:12.310Z,15.60
2022-09-25T08:26:37.481Z,15.70
2022-09-25T08:29:01.469Z,15.70
2022-09-25T08:31:25.246Z,15.80
2022-09-25T08:33:50.759Z,15.80
2022-09-25T08:36:14.463Z,15.80
2022-09-25T08:38:38.059Z,15.90
2022-09-25T08:41:08.799Z,16.00
2022-09-25T08:43:37.411Z,16.10
2022-09-25T08:46:21.337Z,16.20
2022-09-25T08:49:06.159Z,16.40
2022-09-25T08:51:30.840Z,16.60
2022-09-25T08:53:54.393Z,16.70
2022-09-25T08:56:21.221Z,16.80
2022-09-25T08:58:52.222Z,16.90
2022-09-25T09:01:20.129Z,16.90
2022-09-25T09:03:53.428Z,17.10
2022-09-25T09:06:19.026Z,17.20
2022-09-25T09:08:47.667Z,17.30
2022-09-25T09:11:18.035Z,17.50
2022-09-25T09:13:51.495Z,17.60
2022-09-25T09:16:29.843Z,17.60
2022-09-25T09:18:53.719Z,17.60
2022-09-25T09:21:25.600Z,17.70
2022-09-25T09:23:58.885Z,17.80
2022-09-25T09:26:35.331Z,17.70
2022-09-25T09:29:29.288Z,17.90
2022-09-25T09:32:20.739Z,18.20
2022-09-25T09:35:08.888Z,18.60
2022-09-25T09:37:49.982Z,19.00
2022-09-25T09:40:27.514Z,19.00
2022-09-25T09:43:04.755Z,19.10
2022-09-25T09:45:44.431Z,19.30
2022-09-25T09:48:16.731Z,19.40
2022-09-25T09:50:52.353Z,19.70
2022-09-25T09:53:30.067Z,19.90
2022-09-25T09:55:59.159Z,19.80
2022-09-25T09:58:30.473Z,20.10
2022-09-25T10:00:55.659Z,20.30
2022-09-25T10:03:25.282Z,20.20
2022-09-25T10:05:51.175Z,20.10
2022-09-25T10:08:14.930Z,20.40
2022-09-25T10:10:42.185Z,20.70
2022-09-25T10:13:12.735Z,20.60
2022-09-25T10:15:42.826Z,20.70
2022-09-25T10:18:09.215Z,20.90
2022-09-25T10:20:41.985Z,20.70
2022-09-25T10:23:09.882Z,20.90
2022-09-25T10:25:39.219Z,21.10
2022-09-25T10:28:22.680Z,20.70
2022-09-25T10:30:47.933Z,20.90
2022-09-25T10:33:17.923Z,21.20
2022-09-25T10:35:45.953Z,21.40
2022-09-25T10:38:33.720Z,21.10
2022-09-25T10:41:04.855Z,21.40
2022-09-25T10:43:28.500Z,21.50
2022-09-25T10:45:54.240Z,21.50
2022-09-25T10:48:52.227Z,21.20
2022-09-25T10:51:18.452Z,21.00
2022-09-25T10:53:42.044Z,21.00
2022-09-25T10:56:08.613Z,21.30
2022-09-25T10:58:38.579Z,21.50
2022-09-25T11:01:04.701Z,21.80
2022-09-25T11:03:32.492Z,21.90
2022-09-25T11:05:58.965Z,22.00
2022-09-25T11:08:26.762Z,21.60
2022-09-25T11:10:57.204Z,21.30
2022-09-25T11:13:26.168Z,20.90
2022-09-25T11:15:54.824Z,21.10
2022-09-25T11:18:39.162Z,21.20
2022-09-25T11:21:04.608Z,21.40
2022-09-25T11:23:36.182Z,21.40
2022-09-25T11:26:10.025Z,21.50
2022-09-25T11:28:38.725Z,21.20
2022-09-25T11:31:13.313Z,21.10
2022-09-25T11:33:46.328Z,21.30
2022-09-25T11:36:17.651Z,21.50
2022-09-25T11:39:06.240Z,21.50
2022-09-25T11:41:35.939Z,21.70
2022-09-25T11:44:12.343Z,21.70
2022-09-25T11:46:50.451Z,21.60
2022-09-25T11:49:24.550Z,21.80
2022-09-25T11:52:40.183Z,22.00
2022-09-25T11:55:34.823Z,21.50
2022-09-25T11:58:11.103Z,21.60
2022-09-25T12:00:47.403Z,21.50
2022-09-25T12:03:32.494Z,21.60
2022-09-25T12:06:27.083Z,21.70
2022-09-25T12:09:07.366Z,21.70
2022-09-25T12:11:41.392Z,21.60
2022-09-25T12:14:14.199Z,21.60
2022-09-25T12:16:44.233Z,21.60
2022-09-25T12:19:40.195Z,21.60
2022-09-25T12:22:13.797Z,21.50
2022-09-25T12:24:55.760Z,21.40
2022-09-25T12:27:29.312Z,21.20
2022-09-25T12:30:11.682Z,21.30
2022-09-25T12:33:04.097Z,21.20
2022-09-25T12:35:40.909Z,21.20
2022-09-25T12:38:13.218Z,21.20
2022-09-25T12:40:44.148Z,21.40
2022-09-25T12:43:15.307Z,21.20
2022-09-25T12:45:44.531Z,21.10
2022-09-25T12:48:17.003Z,21.10
2022-09-25T12:50:50.488Z,20.90
2022-09-25T12:53:24.633Z,21.30
2022-09-25T12:55:56.555Z,21.40
2022-09-25T12:58:32.145Z,21.40
2022-09-25T13:01:03.650Z,21.30
2022-09-25T13:03:37.421Z,21.40
2022-09-25T13:06:11.643Z,21.50
2022-09-25T13:08:45.900Z,21.50
2022-09-25T13:11:17.898Z,21.50
2022-09-25T13:13:45.863Z,21.60
2022-09-25T13:16:09.478Z,21.60
2022-09-25T13:18:34.498Z,21.60
2022-09-25T13:21:01.585Z,21.80
2022-09-25T13:23:33.792Z,21.50
2022-09-25T13:26:03.240Z,21.50
2022-09-25T13:28:31.468Z,21.30
2022-09-25T13:31:12.346Z,21.00
2022-09-25T13:33:44.806Z,21.20
2022-09-25T13:36:23.315Z,21.40
2022-09-25T13:39:05.180Z,21.40
2022-09-25T13:41:30.946Z,21.20
2022-09-25T13:44:50.205Z,21.00
2022-09-25T13:47:57.071Z,21.20
2022-09-25T13:50:32.342Z,21.10
2022-09-25T13:53:27.187Z,20.80
2022-09-25T13:56:45.946Z,20.80
2022-09-25T13:59:27.258Z,20.40
2022-09-25T14:01:55.750Z,19.90
2022-09-25T14:04:32.363Z,19.90
2022-09-25T14:07:06.415Z,19.80
2022-09-25T14:09:31.761Z,20.00
2022-09-25T14:12:13.400Z,19.80
2022-09-25T14:14:52.553Z,19.80
2022-09-25T14:17:17.723Z,19.80
2022-09-25T14:19:45.436Z,19.90
2022-09-25T14:22:20.674Z,20.00
2022-09-25T14:24:45.566Z,20.00
2022-09-25T14:27:24.026Z,20.00
2022-09-25T14:29:47.954Z,20.20
2022-09-25T14:32:53.460Z,20.20
2022-09-25T14:35:32.271Z,20.20
2022-09-25T14:38:35.887Z,20.30
2022-09-25T14:41:23.547Z,20.00
2022-09-25T14:44:04.291Z,20.10
2022-09-25T14:46:28.319Z,20.20
2022-09-25T14:48:55.810Z,20.10
2022-09-25T14:51:26.155Z,20.20
2022-09-25T14:53:55.915Z,20.10
2022-09-25T14:56:20.399Z,19.80
2022-09-25T14:58:47.532Z,19.60
2022-09-25T15:01:19.886Z,19.50
2022-09-25T15:03:48.852Z,19.50
2022-09-25T15:06:16.154Z,19.50
2022-09-25T15:08:42.407Z,19.50
2022-09-25T15:11:13.720Z,19.50
2022-09-25T15:13:37.279Z,19.50
2022-09-25T15:16:18.934Z,19.40
2022-09-25T15:18:47.464Z,19.50
2022-09-25T15:21:17.618Z,19.50
2022-09-25T15:23:41.359Z,19.30
2022-09-25T15:26:05.347Z,19.40
2022-09-25T15:28:29.837Z,19.30
2022-09-25T15:30:58.478Z,19.40
2022-09-25T15:33:25.640Z,19.50
2022-09-25T15:35:57.747Z,19.50
2022-09-25T15:38:21.391Z,19.50
2022-09-25T15:40:55.689Z,19.50
2022-09-25T15:43:19.960Z,19.50
2022-09-25T15:45:47.264Z,19.40
2022-09-25T15:48:22.623Z,19.40
2022-09-25T15:50:46.602Z,19.30
2022-09-25T15:53:23.803Z,19.30
2022-09-25T15:55:47.575Z,19.30
2022-09-25T15:58:16.622Z,19.20
2022-09-25T16:00:57.927Z,19.20
2022-09-25T16:03:42.605Z,19.10
2022-09-25T16:06:06.983Z,19.10
2022-09-25T16:08:34.630Z,19.00
2022-09-25T16:11:17.393Z,19.00
2022-09-25T16:13:43.695Z,18.80
2022-09-25T16:16:20.752Z,18.80
2022-09-25T16:18:44.465Z,18.70
2022-09-25T16:21:22.841Z,18.70
2022-09-25T16:23:56.126Z,18.60
2022-09-25T16:26:25.581Z,18.50
2022-09-25T16:29:03.606Z,18.40
2022-09-25T16:31:27.530Z,18.30
2022-09-25T16:33:54.887Z,18.20
2022-09-25T16:36:19.064Z,18.10
2022-09-25T16:39:05.657Z,18.10
2022-09-25T16:41:29.426Z,18.00
2022-09-25T16:44:14.742Z,17.80
2022-09-25T16:46:38.364Z,17.70
2022-09-25T16:49:04.961Z,17.60
2022-09-25T16:51:30.376Z,17.50
2022-09-25T16:53:55.196Z,17.40
2022-09-25T16:56:25.765Z,17.30
2022-09-25T16:58:49.485Z,17.30
2022-09-25T17:01:13.366Z,17.20
2022-09-25T17:03:49.895Z,17.10
2022-09-25T17:06:13.625Z,17.00
2022-09-25T17:08:37.135Z,16.90
2022-09-25T17:11:00.727Z,16.90
2022-09-25T17:13:30.833Z,16.70
2022-09-25T17:15:55.818Z,16.70
2022-09-25T17:18:22.416Z,16.60
2022-09-25T17:20:46.763Z,16.50
2022-09-25T17:23:11.953Z,16.40
2022-09-25T17:25:42.196Z,16.40
2022-09-25T17:28:07.252Z,16.30
2022-09-25T17:30:32.196Z,16.20
2022-09-25T17:32:55.707Z,16.20
2022-09-25T17:35:37.619Z,16.10
2022-09-25T17:38:01.971Z,16.10
2022-09-25T17:40:25.716Z,16.00
2022-09-25T17:42:49.311Z,16.00
2022-09-25T17:45:27.619Z,15.90
2022-09-25T17:47:54.591Z,15.80
2022-09-25T17:50:18.344Z,15.80
2022-09-25T17:52:41.960Z,15.70
2022-09-25T17:55:16.051Z,15.70
2022-09-25T17:57:39.771Z,15.70
2022-09-25T18:00:04.081Z,15.70
2022-09-25T18:02:29.745Z,15.60
2022-09-25T18:04:54.680Z,15.60
2022-09-25T18:07:18.723Z,15.60
2022-09-25T18:09:42.320Z,15.60
2022-09-25T18:12:05.949Z,15.50
2022-09-25T18:14:29.912Z,15.40
2022-09-25T18:16:53.477Z,15.30
2022-09-25T18:19:37.636Z,15.40
2022-09-25T18:22:22.000Z,15.30
2022-09-25T18:24:45.944Z,15.30
2022-09-25T18:27:09.525Z,15.30
2022-09-25T18:29:36.498Z,15.30
2022-09-25T18:32:00.014Z,15.30
2022-09-25T18:34:26.084Z,15.30
2022-09-25T18:36:50.265Z,15.20
2022-09-25T18:39:19.889Z,15.20
2022-09-25T18:41:44.064Z,15.20
2022-09-25T18:44:08.222Z,15.10
2022-09-25T18:46:31.793Z,15.10
2022-09-25T18:48:57.697Z,15.10
2022-09-25T18:51:21.287Z,15.00
2022-09-25T18:53:45.072Z,15.10
2022-09-25T18:56:10.564Z,15.00
2022-09-25T18:58:34.624Z,15.00
2022-09-25T19:00:58.175Z,15.00
2022-09-25T19:03:22.579Z,14.90
2022-09-25T19:05:56.248Z,14.90
2022-09-25T19:08:19.883Z,14.80
2022-09-25T19:10:44.347Z,14.90
2022-09-25T19:13:10.278Z,14.80
2022-09-25T19:15:33.859Z,14.80
2022-09-25T19:17:58.330Z,14.80
2022-09-25T19:20:21.889Z,14.80
2022-09-25T19:22:45.572Z,14.70
2022-09-25T19:25:11.252Z,14.70
2022-09-25T19:27:34.816Z,14.70
2022-09-25T19:29:59.724Z,14.70
2022-09-25T19:32:24.805Z,14.60
2022-09-25T19:34:48.323Z,14.60
2022-09-25T19:37:11.951Z,14.60
2022-09-25T19:39:56.227Z,14.60
2022-09-25T19:42:19.983Z,14.50
2022-09-25T19:44:43.867Z,14.50
2022-09-25T19:47:08.839Z,14.50
2022-09-25T19:49:32.327Z,14.40
2022-09-25T19:51:55.907Z,14.50
2022-09-25T19:54:19.582Z,14.40
2022-09-25T19:56:43.623Z,14.40
2022-09-25T19:59:07.147Z,14.40
2022-09-25T20:01:31.041Z,14.30
2022-09-25T20:03:56.717Z,14.30
2022-09-25T20:06:20.549Z,14.30
2022-09-25T20:08:44.439Z,14.20
2022-09-25T20:11:18.575Z,14.20
2022-09-25T20:13:42.195Z,14.20
2022-09-25T20:16:09.986Z,14.20
2022-09-25T20:18:33.617Z,14.10
2022-09-25T20:21:03.711Z,14.10
2022-09-25T20:23:27.275Z,14.10
2022-09-25T20:25:50.772Z,14.10
2022-09-25T20:28:14.952Z,14.10
2022-09-25T20:30:38.846Z,14.10
2022-09-25T20:33:03.875Z,14.00
2022-09-25T20:35:27.471Z,14.00
2022-09-25T20:37:52.438Z,14.00
2022-09-25T20:40:16.836Z,14.00
2022-09-25T20:42:40.939Z,13.90
2022-09-25T20:45:04.860Z,13.90
2022-09-25T20:47:33.718Z,14.00
2022-09-25T20:49:57.419Z,14.00
2022-09-25T20:52:21.031Z,14.00
2022-09-25T20:54:45.931Z,14.00
2022-09-25T20:57:09.963Z,13.90
2022-09-25T20:59:33.504Z,13.90
2022-09-25T21:01:57.989Z,13.90
2022-09-25T21:04:21.651Z,13.90
2022-09-25T21:06:46.153Z,13.90
2022-09-25T21:09:13.951Z,13.90
2022-09-25T21:11:40.342Z,13.80
2022-09-25T21:14:04.949Z,13.80
2022-09-25T21:16:30.732Z,13.80
2022-09-25T21:18:57.499Z,13.80
2022-09-25T21:21:21.284Z,13.80
2022-09-25T21:23:49.204Z,13.80
2022-09-25T21:26:15.030Z,13.80
2022-09-25T21:28:42.171Z,13.80
2022-09-25T21:31:07.254Z,13.80
2022-09-25T21:33:30.845Z,13.80
2022-09-25T21:35:54.425Z,13.80
2022-09-25T21:38:17.918Z,13.80
2022-09-25T21:40:41.571Z,13.80
2022-09-25T21:43:05.232Z,13.80
2022-09-25T21:45:31.583Z,13.70
2022-09-25T21:47:55.158Z,13.80
2022-09-25T21:50:18.763Z,13.80
2022-09-25T21:52:42.318Z,13.70
2022-09-25T21:55:07.367Z,13.70
2022-09-25T21:57:30.914Z,13.70
2022-09-25T21:59:54.480Z,13.70
2022-09-25T22:02:19.681Z,13.70
2022-09-25T22:04:43.356Z,13.80
2022-09-25T22:07:06.855Z,13.80
2022-09-25T22:09:31.459Z,13.70
2022-09-25T22:11:55.039Z,13.70
2022-09-25T22:14:19.787Z,13.60
2022-09-25T22:16:44.517Z,13.60
2022-09-25T22:19:13.606Z,13.60
2022-09-25T22:21:38.030Z,13.60
2022-09-25T22:24:02.359Z,13.60
2022-09-25T22:26:26.675Z,13.60
2022-09-25T22:28:50.910Z,13.60
2022-09-25T22:31:17.732Z,13.60
2022-09-25T22:33:41.837Z,13.60
2022-09-25T22:36:09.315Z,13.70
2022-09-25T22:38:33.599Z,13.60
2022-09-25T22:40:57.678Z,13.70
2022-09-25T22:43:21.275Z,13.70
2022-09-25T22:45:50.925Z,13.70
2022-09-25T22:48:14.494Z,13.60
2022-09-25T22:50:37.989Z,13.60
2022-09-25T22:53:02.957Z,13.60
2022-09-25T22:55:26.771Z,13.60
2022-09-25T22:57:50.403Z,13.60
2022-09-25T23:00:16.347Z,13.60
2022-09-25T23:02:39.928Z,13.50
2022-09-25T23:05:06.537Z,13.40
2022-09-25T23:07:30.485Z,13.40
2022-09-25T23:09:55.419Z,13.40
2022-09-25T23:12:19.078Z,13.40
2022-09-25T23:14:42.612Z,13.40
2022-09-25T23:17:06.238Z,13.40
2022-09-25T23:19:30.083Z,13.40
2022-09-25T23:21:55.095Z,13.40
2022-09-25T23:24:21.384Z,13.40
2022-09-25T23:26:47.198Z,13.30
2022-09-25T23:29:12.980Z,13.40
2022-09-25T23:31:36.583Z,13.30
2022-09-25T23:34:00.554Z,13.30
2022-09-25T23:36:25.847Z,13.30
2022-09-25T23:38:50.432Z,13.30
2022-09-25T23:41:19.191Z,13.30
2022-09-25T23:43:47.154Z,13.20
2022-09-25T23:46:10.965Z,13.20
2022-09-25T23:48:34.502Z,13.20
2022-09-25T23:50:58.087Z,13.20
2022-09-25T23:53:21.657Z,13.10
2022-09-25T23:55:45.333Z,13.10
2022-09-25T23:58:08.898Z,13.10
